createdAt,value
2018-11-12T00:00:25.474Z,14.50
2018-11-12T00:02:57.340Z,14.90
2018-11-12T00:05:26.016Z,15.17
2018-11-12T00:07:54.667Z,14.33
2018-11-12T00:10:23.405Z,15.47
2018-11-12T00:12:52.078Z,14.40
2018-11-12T00:15:20.815Z,15.13
2018-11-12T00:17:49.490Z,14.37
2018-11-12T00:20:18.510Z,15.17
2018-11-12T00:22:47.561Z,15.37
2018-11-12T00:25:16.221Z,14.23
2018-11-12T00:27:45.207Z,14.63
2018-11-12T00:30:16.383Z,15.33
2018-11-12T00:32:45.941Z,15.33
2018-11-12T00:35:14.577Z,14.90
2018-11-12T00:37:43.957Z,15.17
2018-11-12T00:40:13.892Z,13.80
2018-11-12T00:42:43.279Z,14.70
2018-11-12T00:45:12.343Z,15.17
2018-11-12T00:47:41.169Z,15.13
2018-11-12T00:50:11.180Z,15.43
2018-11-12T00:52:39.981Z,13.50
2018-11-12T00:55:10.225Z,14.30
2018-11-12T00:57:39.291Z,13.77
2018-11-12T01:00:11.284Z,14.70
2018-11-12T01:02:40.764Z,14.87
2018-11-12T01:05:09.446Z,14.10
2018-11-12T01:07:38.228Z,14.67
2018-11-12T01:10:08.148Z,15.17
2018-11-12T01:12:36.836Z,14.27
2018-11-12T01:15:07.427Z,14.73
2018-11-12T01:17:36.109Z,14.70
2018-11-12T01:20:04.939Z,15.13
2018-11-12T01:22:33.591Z,14.63
2018-11-12T01:25:02.276Z,13.83
2018-11-12T01:27:31.001Z,15.73
2018-11-12T01:29:59.662Z,14.67
2018-11-12T01:32:28.575Z,14.13
2018-11-12T01:34:57.268Z,14.23
2018-11-12T01:37:25.948Z,14.60
2018-11-12T01:39:54.628Z,14.50
2018-11-12T01:42:23.316Z,15.03
2018-11-12T01:44:52.005Z,14.50
2018-11-12T01:47:20.688Z,14.63
2018-11-12T01:49:49.370Z,14.33
2018-11-12T01:52:18.061Z,14.13
2018-11-12T01:54:46.742Z,14.47
2018-11-12T01:57:15.563Z,14.17
2018-11-12T01:59:44.388Z,14.07
2018-11-12T02:02:13.089Z,15.00
2018-11-12T02:04:41.868Z,15.37
2018-11-12T02:07:10.516Z,14.83
2018-11-12T02:09:39.169Z,15.87
2018-11-12T02:12:07.823Z,15.07
2018-11-12T02:14:36.570Z,15.27
2018-11-12T02:17:05.331Z,15.07
2018-11-12T02:19:34.016Z,15.63
2018-11-12T02:22:02.703Z,14.80
2018-11-12T02:24:31.390Z,14.13
2018-11-12T02:27:00.200Z,14.37
2018-11-12T02:29:28.865Z,15.50
2018-11-12T02:31:57.540Z,15.20
2018-11-12T02:34:26.210Z,14.17
2018-11-12T02:36:54.883Z,14.43
2018-11-12T02:39:23.604Z,15.33
2018-11-12T02:41:52.255Z,15.70
2018-11-12T02:44:20.927Z,15.07
2018-11-12T02:46:49.607Z,14.90
2018-11-12T02:49:18.320Z,15.07
2018-11-12T02:51:46.965Z,15.93
2018-11-12T02:54:15.771Z,14.83
2018-11-12T02:56:44.413Z,16.40
2018-11-12T02:59:13.088Z,15.33
2018-11-12T03:01:41.786Z,15.83
2018-11-12T03:04:10.447Z,14.53
2018-11-12T03:06:39.185Z,15.17
2018-11-12T03:09:10.058Z,14.13
2018-11-12T03:11:38.788Z,14.77
2018-11-12T03:14:07.584Z,15.00
2018-11-12T03:16:36.354Z,15.30
2018-11-12T03:19:05.218Z,15.50
2018-11-12T03:21:33.963Z,14.33
2018-11-12T03:24:02.620Z,14.33
2018-11-12T03:26:31.272Z,14.77
2018-11-12T03:28:59.922Z,15.00
2018-11-12T03:31:28.588Z,15.23
2018-11-12T03:33:57.360Z,14.17
2018-11-12T03:36:26.059Z,15.00
2018-11-12T03:38:54.710Z,14.70
2018-11-12T03:41:23.387Z,14.90
2018-11-12T03:43:52.092Z,14.43
2018-11-12T03:46:20.752Z,15.30
2018-11-12T03:48:49.396Z,13.53
2018-11-12T03:51:18.069Z,14.63
2018-11-12T03:53:46.720Z,14.87
2018-11-12T03:56:15.433Z,13.87
2018-11-12T03:58:44.078Z,14.67
2018-11-12T04:01:12.723Z,13.30
2018-11-12T04:03:41.417Z,13.90
2018-11-12T04:06:10.073Z,14.70
2018-11-12T04:08:38.731Z,13.73
2018-11-12T04:11:07.600Z,13.83
2018-11-12T04:13:36.337Z,14.83
2018-11-12T04:16:05.025Z,14.30
2018-11-12T04:18:33.727Z,14.07
2018-11-12T04:21:02.369Z,13.97
2018-11-12T04:23:31.047Z,13.90
2018-11-12T04:26:00.335Z,13.73
2018-11-12T04:28:29.003Z,14.00
2018-11-12T04:30:57.661Z,14.93
2018-11-12T04:33:26.348Z,15.13
2018-11-12T04:35:55.011Z,13.83
2018-11-12T04:38:23.726Z,14.27
2018-11-12T04:40:52.383Z,14.80
2018-11-12T04:43:21.052Z,14.07
2018-11-12T04:45:49.736Z,14.43
2018-11-12T04:48:18.408Z,14.70
2018-11-12T04:50:47.062Z,14.30
2018-11-12T04:53:15.812Z,12.77
2018-11-12T04:55:44.517Z,14.37
2018-11-12T04:58:13.212Z,13.63
2018-11-12T05:00:41.924Z,14.17
2018-11-12T05:03:10.601Z,14.07
2018-11-12T05:05:39.444Z,13.80
2018-11-12T05:08:08.112Z,13.37
2018-11-12T05:10:36.802Z,13.47
2018-11-12T05:13:05.536Z,13.47
2018-11-12T05:15:34.231Z,14.50
2018-11-12T05:18:02.867Z,14.13
2018-11-12T05:20:31.568Z,12.70
2018-11-12T05:23:00.425Z,13.33
2018-11-12T05:25:29.096Z,13.83
2018-11-12T05:27:57.809Z,14.00
2018-11-12T05:30:27.696Z,13.67
2018-11-12T05:32:56.774Z,12.93
2018-11-12T05:35:26.690Z,13.07
2018-11-12T05:37:55.426Z,13.40
2018-11-12T05:40:26.025Z,13.07
2018-11-12T05:42:54.772Z,14.13
2018-11-12T05:45:24.684Z,13.43
2018-11-12T05:47:53.386Z,12.87
2018-11-12T05:50:25.251Z,14.23
2018-11-12T05:52:56.276Z,14.83
2018-11-12T05:55:26.033Z,14.30
2018-11-12T05:57:54.735Z,13.13
2018-11-12T06:00:26.041Z,14.00
2018-11-12T06:02:54.748Z,14.33
2018-11-12T06:05:23.409Z,14.03
2018-11-12T06:07:52.123Z,13.77
2018-11-12T06:10:22.014Z,13.53
2018-11-12T06:12:51.005Z,13.57
2018-11-12T06:15:19.839Z,14.83
2018-11-12T06:17:49.298Z,14.60
2018-11-12T06:20:19.990Z,13.10
2018-11-12T06:22:48.719Z,13.57
2018-11-12T06:25:18.737Z,13.37
2018-11-12T06:27:47.509Z,13.30
2018-11-12T06:30:17.703Z,14.17
2018-11-12T06:32:46.424Z,13.43
2018-11-12T06:35:15.632Z,13.80
2018-11-12T06:37:44.947Z,14.40
2018-11-12T06:40:15.972Z,14.57
2018-11-12T06:42:44.722Z,14.10
2018-11-12T06:45:15.695Z,14.30
2018-11-12T06:47:45.104Z,13.97
2018-11-12T06:50:15.223Z,13.77
2018-11-12T06:52:43.910Z,13.77
2018-11-12T06:55:13.616Z,14.70
2018-11-12T06:57:42.592Z,14.97
2018-11-12T07:00:15.341Z,14.53
2018-11-12T07:02:44.237Z,13.73
2018-11-12T07:05:13.214Z,13.40
2018-11-12T07:07:41.988Z,14.27
2018-11-12T07:10:12.624Z,13.50
2018-11-12T07:12:42.323Z,13.70
2018-11-12T07:15:12.577Z,12.90
2018-11-12T07:17:41.297Z,13.40
2018-11-12T07:20:11.413Z,13.47
2018-11-12T07:22:40.166Z,13.13
2018-11-12T07:25:10.038Z,12.83
2018-11-12T07:27:38.620Z,13.40
2018-11-12T07:30:10.639Z,12.47
2018-11-12T07:32:39.323Z,12.57
2018-11-12T07:35:09.361Z,13.27
2018-11-12T07:37:38.088Z,12.20
2018-11-12T07:40:08.011Z,13.03
2018-11-12T07:42:36.963Z,12.37
2018-11-12T07:45:07.259Z,12.63
2018-11-12T07:47:35.981Z,13.47
2018-11-12T07:50:06.731Z,12.50
2018-11-12T07:52:35.463Z,11.90
2018-11-12T07:55:04.493Z,12.30
2018-11-12T07:57:33.169Z,12.00
2018-11-12T08:00:01.955Z,11.37
2018-11-12T08:02:31.820Z,12.03
2018-11-12T08:05:00.532Z,11.33
2018-11-12T08:07:29.172Z,11.03
2018-11-12T08:09:57.889Z,11.27
2018-11-12T08:12:26.932Z,12.97
2018-11-12T08:14:55.757Z,11.03
2018-11-12T08:17:24.333Z,10.83
2018-11-12T08:19:53.043Z,12.47
2018-11-12T08:22:21.707Z,11.50
2018-11-12T08:24:50.469Z,11.50
2018-11-12T08:27:19.165Z,10.77
2018-11-12T08:29:47.868Z,11.20
2018-11-12T08:32:16.512Z,11.00
2018-11-12T08:34:45.241Z,10.93
2018-11-12T08:37:13.900Z,11.50
2018-11-12T08:39:42.810Z,11.50
2018-11-12T08:42:11.440Z,10.10
2018-11-12T08:44:40.136Z,10.77
2018-11-12T08:47:08.886Z,10.33
2018-11-12T08:49:37.633Z,10.70
2018-11-12T08:52:06.447Z,10.10
2018-11-12T08:54:35.065Z,10.90
2018-11-12T08:57:03.738Z,10.60
2018-11-12T08:59:32.444Z,10.07
2018-11-12T09:02:01.110Z,10.93
2018-11-12T09:04:29.846Z,11.53
2018-11-12T09:06:58.582Z,11.07
2018-11-12T09:09:27.269Z,11.00
2018-11-12T09:11:55.959Z,11.83
2018-11-12T09:14:24.641Z,12.03
2018-11-12T09:16:53.321Z,11.80
2018-11-12T09:19:22.005Z,11.27
2018-11-12T09:21:50.708Z,10.90
2018-11-12T09:24:19.402Z,11.00
2018-11-12T09:26:48.100Z,10.50
2018-11-12T09:29:16.774Z,10.93
2018-11-12T09:31:45.449Z,10.33
2018-11-12T09:34:14.221Z,11.30
2018-11-12T09:36:43.260Z,9.73
2018-11-12T09:39:12.365Z,10.43
2018-11-12T09:41:41.149Z,9.93
2018-11-12T09:44:09.795Z,10.53
2018-11-12T09:46:38.555Z,10.83
2018-11-12T09:49:07.367Z,9.90
2018-11-12T09:51:36.119Z,10.70
2018-11-12T09:54:05.143Z,10.17
2018-11-12T09:56:33.765Z,9.90
2018-11-12T09:59:02.451Z,10.13
2018-11-12T10:01:31.549Z,10.50
2018-11-12T10:04:00.859Z,9.60
2018-11-12T10:06:29.538Z,10.03
2018-11-12T10:08:58.727Z,10.20
2018-11-12T10:11:27.688Z,9.40
2018-11-12T10:13:57.103Z,10.03
2018-11-12T10:16:24.964Z,10.13
2018-11-12T10:18:52.028Z,9.73
2018-11-12T10:21:20.830Z,9.83
2018-11-12T10:23:49.495Z,9.43
2018-11-12T10:26:18.179Z,10.00
2018-11-12T10:28:46.854Z,9.70
2018-11-12T10:31:15.636Z,9.90
2018-11-12T10:33:44.302Z,9.07
2018-11-12T10:36:13.060Z,9.47
2018-11-12T10:38:41.773Z,9.33
2018-11-12T10:41:10.466Z,9.80
2018-11-12T10:43:39.120Z,9.47
2018-11-12T10:46:07.776Z,8.87
2018-11-12T10:48:36.492Z,8.70
2018-11-12T10:51:05.626Z,8.87
2018-11-12T10:53:34.125Z,8.93
2018-11-12T10:56:02.882Z,9.40
2018-11-12T10:58:31.654Z,9.47
2018-11-12T11:01:05.709Z,10.33
2018-11-12T11:03:39.842Z,9.50
2018-11-12T11:06:08.526Z,10.10
2018-11-12T11:08:37.242Z,9.93
2018-11-12T11:11:05.968Z,9.67
2018-11-12T11:13:35.516Z,9.67
2018-11-12T11:16:04.155Z,9.77
2018-11-12T11:18:32.798Z,9.30
2018-11-12T11:21:01.527Z,9.57
2018-11-12T11:23:30.212Z,9.53
2018-11-12T11:25:58.905Z,9.03
2018-11-12T11:28:27.605Z,9.43
2018-11-12T11:30:56.363Z,9.30
2018-11-12T11:33:25.041Z,9.33
2018-11-12T11:35:53.727Z,9.10
2018-11-12T11:38:22.437Z,8.47
2018-11-12T11:40:51.284Z,9.33
2018-11-12T11:43:19.945Z,9.70
2018-11-12T11:45:48.633Z,9.23
2018-11-12T11:48:17.496Z,9.60
2018-11-12T11:50:46.188Z,9.67
2018-11-12T11:53:14.780Z,9.13
2018-11-12T11:55:43.463Z,9.83
2018-11-12T11:58:12.165Z,10.27
2018-11-12T12:00:40.924Z,9.07
2018-11-12T12:03:09.875Z,9.50
2018-11-12T12:05:38.601Z,9.73
2018-11-12T12:08:07.332Z,9.07
2018-11-12T12:10:36.234Z,9.43
2018-11-12T12:13:05.278Z,9.50
2018-11-12T12:15:33.971Z,9.03
2018-11-12T12:18:02.665Z,9.40
2018-11-12T12:20:31.360Z,9.00
2018-11-12T12:23:00.122Z,9.23
2018-11-12T12:25:28.900Z,9.20
2018-11-12T12:27:57.526Z,9.60
2018-11-12T12:30:27.428Z,8.13
2018-11-12T12:32:57.012Z,8.93
2018-11-12T12:35:25.845Z,8.37
2018-11-12T12:37:54.817Z,8.37
2018-11-12T12:40:24.404Z,8.83
2018-11-12T12:42:59.099Z,9.20
2018-11-12T12:45:27.963Z,8.93
2018-11-12T12:47:57.519Z,8.90
2018-11-12T12:50:26.192Z,9.03
2018-11-12T12:52:54.863Z,9.07
2018-11-12T12:55:23.526Z,8.77
2018-11-12T12:57:52.295Z,8.53
2018-11-12T13:00:25.384Z,9.20
2018-11-12T13:02:54.315Z,8.47
2018-11-12T13:05:23.085Z,13.43
2018-11-12T13:07:51.737Z,9.13
2018-11-12T13:10:21.599Z,10.90
2018-11-12T13:12:50.356Z,8.23
2018-11-12T13:15:19.829Z,9.00
2018-11-12T13:17:49.235Z,9.00
2018-11-12T13:20:19.142Z,9.23
2018-11-12T13:22:48.315Z,9.63
2018-11-12T13:25:17.166Z,9.13
2018-11-12T13:27:46.405Z,8.47
2018-11-12T13:30:22.633Z,9.37
2018-11-12T13:32:51.533Z,8.73
2018-11-12T13:35:23.454Z,8.37
2018-11-12T13:37:52.179Z,8.67
2018-11-12T13:40:22.206Z,8.53
2018-11-12T13:42:52.459Z,9.10
2018-11-12T13:45:21.414Z,7.93
2018-11-12T13:47:50.106Z,8.87
2018-11-12T13:50:20.054Z,8.13
2018-11-12T13:52:49.221Z,8.73
2018-11-12T13:55:18.918Z,8.40
2018-11-12T13:57:47.705Z,8.60
2018-11-12T14:00:21.138Z,8.50
2018-11-12T14:02:50.444Z,8.33
2018-11-12T14:05:20.096Z,8.70
2018-11-12T14:07:49.030Z,8.47
2018-11-12T14:10:19.832Z,8.37
2018-11-12T14:12:49.106Z,8.50
2018-11-12T14:15:19.333Z,8.13
2018-11-12T14:17:48.554Z,9.10
2018-11-12T14:20:17.386Z,8.93
2018-11-12T14:22:46.029Z,8.67
2018-11-12T14:25:15.862Z,8.90
2018-11-12T14:27:45.460Z,8.87
2018-11-12T14:30:16.435Z,9.03
2018-11-12T14:32:45.121Z,9.27
2018-11-12T14:35:14.383Z,8.30
2018-11-12T14:37:43.987Z,8.47
2018-11-12T14:40:13.713Z,8.53
2018-11-12T14:42:42.810Z,9.10
2018-11-12T14:45:13.280Z,8.83
2018-11-12T14:47:42.173Z,8.93
2018-11-12T14:50:10.901Z,9.10
2018-11-12T14:52:41.430Z,9.07
2018-11-12T14:55:11.401Z,9.30
2018-11-12T14:57:40.025Z,10.10
2018-11-12T15:00:13.334Z,9.27
2018-11-12T15:02:42.316Z,9.30
2018-11-12T15:05:11.461Z,9.00
2018-11-12T15:07:40.171Z,9.37
2018-11-12T15:10:10.017Z,9.50
2018-11-12T15:12:38.765Z,8.70
2018-11-12T15:15:08.875Z,8.83
2018-11-12T15:17:37.669Z,9.53
2018-11-12T15:20:08.204Z,8.97
2018-11-12T15:22:37.195Z,9.93
2018-11-12T15:25:08.235Z,9.37
2018-11-12T15:27:37.057Z,9.70
2018-11-12T15:30:08.959Z,9.80
2018-11-12T15:32:37.790Z,9.57
2018-11-12T15:35:07.280Z,9.83
2018-11-12T15:37:36.005Z,10.03
2018-11-12T15:40:05.622Z,10.10
2018-11-12T15:42:40.962Z,9.33
2018-11-12T15:45:12.666Z,10.47
2018-11-12T15:47:42.125Z,10.13
2018-11-12T15:50:16.586Z,10.77
2018-11-12T15:52:45.922Z,11.83
2018-11-12T15:55:15.896Z,10.93
2018-11-12T15:57:44.819Z,11.57
2018-11-12T16:00:16.348Z,10.80
2018-11-12T16:02:45.254Z,10.63
2018-11-12T16:05:15.099Z,11.50
2018-11-12T16:07:44.061Z,10.07
2018-11-12T16:10:15.792Z,11.60
2018-11-12T16:12:47.838Z,11.17
2018-11-12T16:15:18.538Z,10.57
2018-11-12T16:17:47.471Z,10.90
2018-11-12T16:20:19.966Z,10.73
2018-11-12T16:22:50.152Z,11.50
2018-11-12T16:25:19.478Z,10.70
2018-11-12T16:27:48.271Z,11.73
2018-11-12T16:30:17.180Z,10.77
2018-11-12T16:32:46.585Z,11.10
2018-11-12T16:35:17.365Z,11.17
2018-11-12T16:37:47.188Z,11.53
2018-11-12T16:40:16.621Z,11.93
2018-11-12T16:42:46.781Z,10.53
2018-11-12T16:45:16.269Z,11.13
2018-11-12T16:47:45.647Z,11.30
2018-11-12T16:50:15.170Z,10.83
2018-11-12T16:52:44.045Z,10.43
2018-11-12T16:55:15.331Z,10.30
2018-11-12T16:57:45.105Z,11.30
2018-11-12T17:00:16.081Z,10.97
2018-11-12T17:02:45.211Z,12.00
2018-11-12T17:05:15.829Z,10.90
2018-11-12T17:07:45.180Z,10.70
2018-11-12T17:10:17.862Z,11.97
2018-11-12T17:12:47.485Z,11.70
2018-11-12T17:15:16.514Z,10.33
2018-11-12T17:17:46.420Z,10.67
2018-11-12T17:20:16.688Z,10.63
2018-11-12T17:22:46.479Z,10.47
2018-11-12T17:25:15.773Z,10.43
2018-11-12T17:27:45.128Z,10.40
2018-11-12T17:30:16.657Z,10.97
2018-11-12T17:32:45.902Z,9.90
2018-11-12T17:35:16.126Z,10.83
2018-11-12T17:37:45.962Z,10.40
2018-11-12T17:40:17.317Z,11.90
2018-11-12T17:42:47.685Z,10.57
2018-11-12T17:45:18.096Z,10.17
2018-11-12T17:47:48.906Z,8.43
2018-11-12T17:50:17.826Z,10.13
2018-11-12T17:52:46.860Z,9.67
2018-11-12T17:55:15.780Z,10.00
2018-11-12T17:57:44.709Z,10.10
2018-11-12T18:00:18.025Z,9.63
2018-11-12T18:02:48.302Z,9.37
2018-11-12T18:05:17.952Z,10.37
2018-11-12T18:07:46.840Z,9.20
2018-11-12T18:10:16.394Z,10.30
2018-11-12T18:12:45.189Z,9.40
2018-11-12T18:15:15.332Z,10.03
2018-11-12T18:17:44.281Z,10.77
2018-11-12T18:20:15.122Z,10.27
2018-11-12T18:22:44.445Z,9.83
2018-11-12T18:25:13.969Z,10.53
2018-11-12T18:27:43.046Z,10.03
2018-11-12T18:30:14.253Z,9.80
2018-11-12T18:32:43.577Z,10.33
2018-11-12T18:35:12.416Z,11.10
2018-11-12T18:37:41.201Z,10.10
2018-11-12T18:40:11.966Z,10.37
2018-11-12T18:42:41.437Z,10.27
2018-11-12T18:45:13.646Z,10.80
2018-11-12T18:47:42.680Z,10.33
2018-11-12T18:50:14.130Z,10.50
2018-11-12T18:52:43.323Z,10.67
2018-11-12T18:55:12.086Z,10.43
2018-11-12T18:57:41.503Z,10.90
2018-11-12T19:00:12.280Z,10.53
2018-11-12T19:02:41.815Z,11.73
2018-11-12T19:05:14.015Z,11.30
2018-11-12T19:07:43.908Z,10.10
2018-11-12T19:10:14.616Z,10.90
2018-11-12T19:12:44.272Z,11.27
2018-11-12T19:15:14.252Z,11.67
2018-11-12T19:17:44.131Z,11.10
2018-11-12T19:20:13.340Z,11.33
2018-11-12T19:22:42.117Z,11.20
2018-11-12T19:25:11.978Z,11.50
2018-11-12T19:27:41.286Z,11.27
2018-11-12T19:30:17.411Z,11.67
2018-11-12T19:32:46.219Z,11.00
2018-11-12T19:35:16.649Z,12.37
2018-11-12T19:37:45.571Z,12.70
2018-11-12T19:40:16.693Z,11.27
2018-11-12T19:42:46.477Z,11.40
2018-11-12T19:45:15.736Z,12.73
2018-11-12T19:47:45.135Z,12.10
2018-11-12T19:50:16.128Z,11.33
2018-11-12T19:52:46.062Z,12.00
2018-11-12T19:55:15.261Z,12.20
2018-11-12T19:57:44.588Z,12.70
2018-11-12T20:00:14.816Z,10.87
2018-11-12T20:02:44.702Z,12.93
2018-11-12T20:05:13.761Z,12.40
2018-11-12T20:07:43.132Z,13.07
2018-11-12T20:10:13.717Z,11.50
2018-11-12T20:12:42.672Z,12.93
2018-11-12T20:15:12.568Z,12.30
2018-11-12T20:17:42.606Z,12.10
2018-11-12T20:20:14.170Z,12.40
2018-11-12T20:22:43.376Z,12.73
2018-11-12T20:25:13.554Z,13.53
2018-11-12T20:27:42.398Z,12.53
2018-11-12T20:30:15.163Z,12.63
2018-11-12T20:32:44.187Z,12.60
2018-11-12T20:35:12.955Z,12.50
2018-11-12T20:37:41.733Z,13.70
2018-11-12T20:40:11.462Z,12.00
2018-11-12T20:42:40.601Z,13.60
2018-11-12T20:45:11.188Z,12.37
2018-11-12T20:47:41.392Z,12.37
2018-11-12T20:50:11.433Z,12.37
2018-11-12T20:52:40.478Z,12.80
2018-11-12T20:55:10.072Z,11.70
2018-11-12T20:57:40.302Z,12.07
2018-11-12T21:00:12.454Z,11.77
2018-11-12T21:02:42.631Z,12.50
2018-11-12T21:05:12.342Z,12.30
2018-11-12T21:07:41.074Z,12.20
2018-11-12T21:10:12.290Z,11.00
2018-11-12T21:12:41.122Z,13.47
2018-11-12T21:15:11.584Z,12.33
2018-11-12T21:17:40.360Z,12.47
2018-11-12T21:20:13.309Z,11.83
2018-11-12T21:22:42.076Z,11.40
2018-11-12T21:25:12.314Z,11.97
2018-11-12T21:27:41.130Z,11.97
2018-11-12T21:30:12.625Z,11.63
2018-11-12T21:32:41.413Z,11.70
2018-11-12T21:35:10.293Z,11.17
2018-11-12T21:37:39.174Z,11.50
2018-11-12T21:40:11.311Z,11.87
2018-11-12T21:42:40.135Z,11.13
2018-11-12T21:45:10.663Z,11.43
2018-11-12T21:47:40.302Z,10.60
2018-11-12T21:50:10.927Z,10.60
2018-11-12T21:52:39.627Z,10.70
2018-11-12T21:55:09.329Z,10.50
2018-11-12T21:57:38.318Z,11.40
2018-11-12T22:00:14.382Z,11.03
2018-11-12T22:02:43.484Z,10.30
2018-11-12T22:05:12.548Z,9.77
2018-11-12T22:07:41.323Z,10.00
2018-11-12T22:10:12.013Z,10.27
2018-11-12T22:12:41.712Z,9.70
2018-11-12T22:15:10.808Z,10.50
2018-11-12T22:17:39.899Z,10.20
2018-11-12T22:20:10.132Z,10.03
2018-11-12T22:22:39.690Z,9.57
2018-11-12T22:25:10.444Z,9.50
2018-11-12T22:27:39.933Z,9.53
2018-11-12T22:30:10.564Z,9.83
2018-11-12T22:32:39.382Z,10.00
2018-11-12T22:35:08.908Z,9.63
2018-11-12T22:37:37.758Z,9.90
2018-11-12T22:40:07.676Z,9.70
2018-11-12T22:42:36.557Z,9.30
2018-11-12T22:45:07.373Z,9.33
2018-11-12T22:47:36.152Z,9.33
2018-11-12T22:50:06.276Z,8.90
2018-11-12T22:52:35.258Z,8.73
2018-11-12T22:55:04.211Z,9.07
2018-11-12T22:57:33.038Z,9.70
2018-11-12T23:00:01.798Z,8.97
2018-11-12T23:02:30.956Z,9.57
2018-11-12T23:04:59.718Z,9.03
2018-11-12T23:07:28.540Z,9.17
2018-11-12T23:09:57.945Z,9.07
2018-11-12T23:12:26.766Z,9.20
2018-11-12T23:14:55.744Z,9.43
2018-11-12T23:17:24.587Z,8.60
2018-11-12T23:19:53.348Z,9.00
2018-11-12T23:22:22.495Z,9.03
2018-11-12T23:24:52.287Z,9.07
2018-11-12T23:27:22.095Z,9.63
2018-11-12T23:29:50.853Z,9.27
2018-11-12T23:32:19.633Z,9.13
2018-11-12T23:34:48.435Z,9.47
2018-11-12T23:37:17.235Z,9.33
2018-11-12T23:39:46.569Z,9.13
2018-11-12T23:42:15.649Z,9.07
2018-11-12T23:44:44.809Z,9.10
2018-11-12T23:47:14.315Z,9.40
2018-11-12T23:49:43.077Z,9.07
2018-11-12T23:52:11.860Z,8.57
2018-11-12T23:54:40.707Z,12.93
2018-11-12T23:57:09.469Z,9.43
2018-11-12T23:59:38.259Z,9.03
